Royal Center, IN (46978)

4:49 PM EST on December 27, 2014 (GMT -0500)
APRSWXNET Logansport IN US | Change Station
CLOSE
Current Station
Personal Weather Station
Location: Logansport, IN
Elevation: 633 ft
Nearby Weather Stations

Elev 633 ft 40.76 °N, 86.36 °W | Updated 34 minutes ago

Overcast
Overcast
47 °F
Feels Like 43 °F
N
8
Wind Variable Wind from WSW
Gusts 15.0 mph

Today
High -- | Low -- °F
--% Chance of Precip.
Yesterday
High -- | Low -- °F
Precip. -- in
8:09 AM 5:24 PM
Waxing Crescent, 40% visible
Pressure 30.08 in
Visibility 2.5 miles
Clouds Overcast 400 ft
Windchill 43 °F
Dew Point 45 °F
Humidity 94%
Rainfall 0.00 in
Snow Depth Not available.
UV 0 out of 12
Pollen .10 out of 12
Air Quality Not available.
Flu Activity Not available.
METAR KGGP 272135Z AUTO 28017G23KT 2 1/2SM -DZ OVC004 06/04 A3008 RMK AO2

More Conditions Fewer Conditions

Pressure 30.08 in
Visibility 2.5 miles
Clouds Overcast 400 ft
Windchill 43 °F
Dew Point 45 °F
Humidity 94%
Rainfall 0.00 in
Snow Depth Not available.
UV 0 out of 12
Pollen .10 out of 12
Air Quality Not available.
Flu Activity Not available.
METAR KGGP 272135Z AUTO 28017G23KT 2 1/2SM -DZ OVC004 06/04 A3008 RMK AO2

More Conditions Fewer Conditions

10-Day Weather Forecast

Almanac

Astronomy

Dec. 27, 2014 Rise Set
Actual Time
Civil Twilight
Nautical Twilight
Astronomical Twilight
Moon
Length of Visible Light
Length of Day
Tomorrow will be .
, % of the Moon is Illuminated

Today's Extremes

State Highs State Lows

Community

WunderPhotos

Upload Photos

1,781,073 photos uploaded!

WunderBlogs® & News

Nearby

Air Quality

  Air Quality AQ Index Pollutant
Not available.

Snow Depth

Station Depth Elevation

Earthquake Activity

City Distance Mag. Time & Date
Minimum magnitude displayed is 2.5.

Coastal Water Temperatures

Place Temperature

Nearby Weather Stations